Kezdőlap
METAR-TAF:

METAR-TAF

Repülőterek :

Harkov, Ukrajna

földrajzi szélesség: 49-58N, földrajzi hosszúság: 036-08E, magasság: 154 m

Jelenlegi meteorológiai megfigyelések

A jelentés 39 perccel ezelõtt készült, 23:30 UTC
Északnyugati szél 6 kt
Hőmérséklet 10°C
Páratartalom 62%
Légköri nyomás 1026 hPa
Látótávolság 10 km, vagy több
felhőtlen 1500 m magasságban, és nincs gomolyfelhõ

METAR: UKHH 242330Z 32003MPS CAVOK 10/03 Q1026 R25/0///81 NOSIG

Idő: 03:09 (00:09 UTC)

Előrejelzés

A jelentés 59 perccel ezelõtt készült, 23:10 UTC
Az előrejelzés 25-én 00 óra UTC és 25-én 24 óra UTC között érvényes
Északi szél 6 kt
Látótávolság 10 km, vagy több
felhőtlen 1500 m magasságban, és nincs gomolyfelhõ

TAF: UKHH 242310Z 2500/2524 35003MPS CAVOK

Meteorológiai megfigyelések és előrejelzések több, mint 4000 repülőtéren (METAR és TAF jelentéseket).

A térképen piros és sárga pontok jelzik az elérhető meteorológiai állomásokat.

Mozgassa az egeret a pont fölött, hogy megjelenjen az állomás neve.

Azután kattintson az időjárási megfigyelések és előrejelzések megtekintéséhez.

A térkép megváltoztatása: kattintson a fekete keresztel jelölt zöld gombra ráközelítéshez, a vonallal jelölt zöld gombra távolításhoz, vagy a zöld nyilakra a szomszédos térképek eléréséhez.


METAR-TAF: